Time;durP1;ratioP1;P1;durP2;ratioP2;P2;SDS_P1;SDS_P2;PMS_P1;PMS_P2;Temp;Humidity;BMP_temperature;BMP_pressure;BME280_temperature;BME280_humidity;BME280_pressure;Samples;Min_cycle;Max_cycle;Signal;HPM_P1;HPM_P2
2023/02/28 00:01:52;;;;;;;6.77;6.17;;;-1.40;99.90;;;-1.02;64.71;98599.09;5236832;28;20201;-58
2023/02/28 00:04:25;;;;;;;5.97;5.57;;;-1.30;99.90;;;-0.91;66.36;98589.56;5235220;28;20702;-61
2023/02/28 00:06:58;;;;;;;5.90;5.40;;;-1.30;99.90;;;-0.87;65.43;98595.81;5246854;28;20220;-60
2023/02/28 00:09:32;;;;;;;6.40;5.57;;;-1.20;99.90;;;-0.95;65.89;98592.41;5234143;28;20228;-61
2023/02/28 00:12:09;;;;;;;5.80;5.30;;;-1.30;99.90;;;-1.01;65.29;98594.25;5235132;28;20212;-60
2023/02/28 00:14:42;;;;;;;6.37;5.87;;;-1.40;99.90;;;-0.96;66.70;98590.66;5229877;28;20670;-59
2023/02/28 00:17:17;;;;;;;6.20;5.70;;;-1.30;99.90;;;-0.94;65.83;98589.22;5232984;28;20227;-61
2023/02/28 00:19:51;;;;;;;6.33;5.83;;;-1.30;99.90;;;-0.86;65.43;98591.66;5237526;28;20222;-63
2023/02/28 00:22:24;;;;;;;6.03;5.53;;;-1.30;99.90;;;-0.78;65.18;98588.41;5233698;28;20206;-59
2023/02/28 00:24:59;;;;;;;6.13;5.73;;;-1.30;99.90;;;-0.69;64.83;98587.84;5236308;28;20212;-63
2023/02/28 00:27:32;;;;;;;6.00;5.60;;;-1.20;99.90;;;-0.79;65.63;98580.00;5242110;28;20227;-62
2023/02/28 00:30:08;;;;;;;6.27;5.77;;;-1.20;99.90;;;-0.94;67.68;98591.72;5239592;28;20220;-61
2023/02/28 00:32:41;;;;;;;6.20;5.70;;;-1.30;99.90;;;-0.79;67.42;98586.63;5239364;28;20560;-58
2023/02/28 00:35:14;;;;;;;6.10;5.60;;;-1.20;99.90;;;-0.87;66.18;98582.38;5234333;28;20212;-60
2023/02/28 00:37:49;;;;;;;6.50;5.90;;;-1.30;99.90;;;-1.03;68.26;98588.19;5239388;28;20220;-58
2023/02/28 00:40:23;;;;;;;6.20;5.73;;;-1.30;99.90;;;-0.84;66.69;98586.09;5236501;28;20200;-61
2023/02/28 00:42:56;;;;;;;6.87;5.87;;;-1.30;99.90;;;-1.00;67.02;98587.59;5242116;28;20203;-61
2023/02/28 00:45:29;;;;;;;6.70;6.20;;;-1.30;99.90;;;-1.01;68.71;98590.84;5240590;28;20207;-62
2023/02/28 00:48:03;;;;;;;7.00;6.40;;;-1.40;99.90;;;-0.95;67.73;98587.41;5237952;28;20703;-61
2023/02/28 00:50:37;;;;;;;6.40;5.80;;;-1.40;99.90;;;-0.96;69.16;98584.75;5242636;28;20578;-58
2023/02/28 00:53:10;;;;;;;6.70;6.20;;;-1.40;99.90;;;-0.89;67.60;98587.19;5241706;28;20196;-58
2023/02/28 00:55:44;;;;;;;6.17;5.67;;;-1.30;99.90;;;-0.77;67.69;98582.69;5238403;28;20205;-62
2023/02/28 00:58:18;;;;;;;6.33;5.93;;;-1.30;99.90;;;-0.66;67.96;98582.25;5242834;28;20303;-61
2023/02/28 01:00:52;;;;;;;6.80;6.20;;;-1.20;99.90;;;-0.71;67.34;98585.88;5241822;28;20201;-60
2023/02/28 01:03:25;;;;;;;6.37;5.80;;;-1.20;99.90;;;-0.66;67.36;98592.28;5238835;28;20197;-61
2023/02/28 01:05:59;;;;;;;6.77;6.20;;;-1.30;99.90;;;-0.76;68.68;98585.34;5236877;28;20200;-61
2023/02/28 01:08:32;;;;;;;7.13;6.53;;;-1.30;99.90;;;-0.77;68.12;98588.59;5240740;28;20225;-60
2023/02/28 01:11:12;;;;;;;6.63;6.13;;;-1.30;99.90;;;-0.94;68.37;98583.31;5237914;28;20204;-62
2023/02/28 01:13:47;;;;;;;7.03;6.33;;;-1.40;99.90;;;-0.99;69.36;98585.28;5242393;28;20201;-61
2023/02/28 01:16:20;;;;;;;6.37;5.87;;;-1.40;99.90;;;-0.91;68.90;98577.00;5239084;28;20188;-58
2023/02/28 01:18:53;;;;;;;6.90;6.13;;;-1.40;99.90;;;-1.02;70.76;98582.44;5243696;28;20213;-62
2023/02/28 01:21:26;;;;;;;7.30;6.57;;;-1.40;99.90;;;-0.99;69.48;98577.75;5239794;28;20201;-61
2023/02/28 01:24:00;;;;;;;7.30;6.70;;;-1.40;99.90;;;-0.97;71.01;98583.84;5238021;28;20211;-61
2023/02/28 01:26:34;;;;;;;6.97;6.27;;;-1.40;99.90;;;-0.91;70.16;98582.03;5241065;28;20365;-61
2023/02/28 01:29:07;;;;;;;6.40;5.90;;;-1.40;99.90;;;-0.85;70.31;98574.28;5237488;28;20263;-61
2023/02/28 01:31:40;;;;;;;6.73;6.23;;;-1.40;99.90;;;-0.91;69.27;98569.50;5240498;28;20204;-58
2023/02/28 01:34:14;;;;;;;6.83;6.23;;;-1.40;99.90;;;-1.12;71.59;98582.09;5240386;28;20208;-61
2023/02/28 01:36:47;;;;;;;7.60;7.03;;;-1.50;99.90;;;-0.96;69.86;98580.63;5239431;28;20653;-61
2023/02/28 01:39:19;;;;;;;7.50;7.00;;;-1.40;99.90;;;-1.03;71.24;98578.16;5236850;28;20573;-61
2023/02/28 01:41:54;;;;;;;7.73;7.07;;;-1.40;99.90;;;-0.99;70.64;98569.34;5237262;28;20552;-62
2023/02/28 01:45:05;;;;;;;7.30;6.60;;;-1.40;99.90;;;-1.07;70.85;98581.03;5239438;28;20226;-60
2023/02/28 01:47:42;;;;;;;7.23;6.53;;;-1.40;99.90;;;-1.04;71.45;98566.31;5238576;28;20230;-62
2023/02/28 01:50:20;;;;;;;6.57;6.07;;;-1.50;99.90;;;-0.96;71.79;98570.56;5239254;28;20222;-64
2023/02/28 01:52:56;;;;;;;6.27;5.67;;;-1.40;99.90;;;-0.92;70.97;98577.75;5241357;28;20206;-62
2023/02/28 01:55:30;;;;;;;6.37;5.87;;;-1.40;99.90;;;-0.98;70.88;98569.50;5231086;28;20223;-61
2023/02/28 01:58:08;;;;;;;7.13;6.43;;;-1.40;99.90;;;-0.96;71.82;98570.56;5241089;28;20229;-60
2023/02/28 02:00:42;;;;;;;7.10;6.50;;;-1.40;99.90;;;-1.10;72.15;98574.78;5235374;28;20737;-61
2023/02/28 02:03:19;;;;;;;7.17;6.40;;;-1.50;99.90;;;-1.02;71.11;98574.03;5238642;28;20203;-62
2023/02/28 02:05:52;;;;;;;7.27;6.57;;;-1.50;99.90;;;-0.95;71.69;98571.47;5240828;28;20641;-61
2023/02/28 02:08:29;;;;;;;7.90;7.20;;;-1.50;99.90;;;-1.01;72.72;98564.16;5241498;28;20224;-61
2023/02/28 02:11:03;;;;;;;6.87;6.13;;;-1.50;99.90;;;-0.87;71.54;98562.31;5236659;28;20664;-61
2023/02/28 02:14:08;;;;;;;7.10;6.50;;;-1.40;99.90;;;-1.14;71.69;98553.47;5241166;28;20625;-61
2023/02/28 02:17:05;;;;;;;7.03;6.47;;;-1.50;99.90;;;-1.10;73.03;98558.09;5239762;28;20216;-61
2023/02/28 02:20:25;;;;;;;7.03;6.43;;;-1.60;99.90;;;-1.22;72.49;98556.72;5239272;28;20196;-58
2023/02/28 02:23:31;;;;;;;7.63;6.90;;;-1.60;99.90;;;-1.21;72.23;98550.97;5240554;28;20644;-61
2023/02/28 02:26:35;;;;;;;7.20;6.60;;;-1.60;99.90;;;-1.12;73.05;98547.00;5243072;28;20215;-60
2023/02/28 02:29:53;;;;;;;7.70;7.20;;;-1.60;99.90;;;-1.29;73.73;98545.09;5238563;28;20259;-62
2023/02/28 02:33:15;;;;;;;7.23;6.73;;;-1.60;99.90;;;-1.11;73.70;98543.78;5237703;28;20205;-62
2023/02/28 02:35:55;;;;;;;7.90;7.30;;;-1.60;99.90;;;-1.23;72.63;98542.38;5237561;28;20579;-60
2023/02/28 02:38:35;;;;;;;7.70;7.10;;;-1.70;99.90;;;-1.32;74.10;98541.34;5239164;28;20556;-59
2023/02/28 02:41:15;;;;;;;8.50;7.27;;;-1.70;99.90;;;-0.98;72.60;98531.88;5235761;28;20212;-62
2023/02/28 02:43:53;;;;;;;7.73;7.03;;;-1.50;99.90;;;-1.05;73.68;98544.47;5230186;28;20293;-60
2023/02/28 02:46:31;;;;;;;7.87;7.27;;;-1.50;99.90;;;-0.88;72.35;98532.94;5233106;28;20211;-61
2023/02/28 02:49:09;;;;;;;7.43;6.90;;;-1.40;99.90;;;-1.11;72.61;98545.41;5236564;28;20227;-61
2023/02/28 02:51:45;;;;;;;7.67;7.00;;;-1.50;99.90;;;-1.28;73.28;98544.38;5241058;28;20205;-62
2023/02/28 02:54:22;;;;;;;7.13;6.53;;;-1.70;99.90;;;-1.07;72.94;98548.41;5238906;28;20200;-61
2023/02/28 02:56:56;;;;;;;7.50;6.83;;;-1.60;99.90;;;-1.33;74.70;98542.09;5234185;28;20208;-62
2023/02/28 02:59:31;;;;;;;8.00;7.30;;;-1.60;99.90;;;-1.08;74.81;98543.25;5236145;28;20204;-60
2023/02/28 03:02:09;;;;;;;7.83;7.10;;;-1.60;99.90;;;-1.04;74.07;98550.38;5234667;28;20203;-62
2023/02/28 03:04:47;;;;;;;8.07;7.47;;;-1.60;99.90;;;-1.04;73.52;98546.25;5227188;28;20197;-61
2023/02/28 03:07:21;;;;;;;7.93;7.30;;;-1.60;99.90;;;-1.06;74.57;98547.72;5235005;28;20263;-61
2023/02/28 03:09:57;;;;;;;7.80;7.20;;;-1.60;99.90;;;-1.11;73.43;98540.38;5240587;28;20726;-61
2023/02/28 03:12:41;;;;;;;8.00;7.23;;;-1.60;99.90;;;-0.93;74.55;98538.31;5235709;28;20656;-61
2023/02/28 03:15:22;;;;;;;7.60;7.00;;;-1.50;99.90;;;-1.00;73.17;98527.41;5235527;28;20258;-61
2023/02/28 03:18:05;;;;;;;7.63;7.03;;;-1.50;99.90;;;-0.95;73.89;98536.34;5236559;28;20228;-61
2023/02/28 03:20:48;;;;;;;7.93;7.33;;;-1.50;99.90;;;-0.88;72.69;98538.84;5237363;28;20207;-61
2023/02/28 03:23:30;;;;;;;7.37;6.80;;;-1.40;99.90;;;-0.84;73.99;98535.94;5243780;28;20203;-62
2023/02/28 03:26:08;;;;;;;9.17;8.27;;;-1.40;99.90;;;-0.94;73.54;98544.06;5239529;28;20193;-62
2023/02/28 03:28:52;;;;;;;7.63;7.10;;;-1.40;99.90;;;-0.98;74.53;98539.41;5238134;28;20231;-62
2023/02/28 03:31:32;;;;;;;7.93;7.23;;;-1.50;99.90;;;-0.83;74.27;98540.25;5237431;28;20226;-59
2023/02/28 03:34:11;;;;;;;7.27;6.67;;;-1.40;99.90;;;-0.66;73.92;98541.19;5227084;28;20644;-61
2023/02/28 03:36:49;;;;;;;8.87;8.13;;;-1.20;99.90;;;-0.72;73.22;98541.41;5230217;28;20197;-62
2023/02/28 03:39:29;;;;;;;8.93;8.13;;;-1.30;99.90;;;-0.80;74.52;98537.16;5225144;28;20204;-63
2023/02/28 03:42:08;;;;;;;7.93;7.23;;;-1.30;99.90;;;-0.75;74.22;98541.06;5222243;28;20211;-63
2023/02/28 03:44:44;;;;;;;8.97;8.27;;;-1.20;99.90;;;-0.73;74.60;98539.63;5226933;28;20204;-60
2023/02/28 03:47:23;;;;;;;8.87;8.17;;;-1.30;99.90;;;-0.86;73.30;98547.41;5234723;28;20231;-61
2023/02/28 03:50:00;;;;;;;8.83;8.13;;;-1.30;99.90;;;-0.69;72.79;98541.75;5233782;28;20217;-60
2023/02/28 03:52:40;;;;;;;8.60;8.00;;;-1.20;99.90;;;-0.70;74.81;98543.38;5230239;28;20796;-59
2023/02/28 03:55:16;;;;;;;8.33;7.63;;;-1.20;99.90;;;-0.66;74.82;98544.59;5226327;28;20235;-60
2023/02/28 03:58:01;;;;;;;8.40;7.70;;;-1.20;99.90;;;-0.55;74.21;98543.28;5233938;28;20220;-62
2023/02/28 04:00:38;;;;;;;8.10;7.37;;;-1.10;99.90;;;-0.80;73.75;98547.19;5235669;28;20204;-61
2023/02/28 04:03:11;;;;;;;8.83;8.03;;;-1.10;99.90;;;-0.80;73.65;98537.16;5235703;28;20718;-56
2023/02/28 04:05:51;;;;;;;8.67;7.83;;;-1.20;99.90;;;-0.80;74.43;98539.66;5230388;28;20204;-61
2023/02/28 04:08:24;;;;;;;8.37;7.67;;;-1.20;99.90;;;-0.57;73.93;98548.16;5230333;28;20336;-62
2023/02/28 04:11:05;;;;;;;8.67;7.97;;;-1.10;99.90;;;-0.66;74.30;98549.63;5224493;28;20208;-61
2023/02/28 04:13:38;;;;;;;9.77;8.97;;;-1.00;99.90;;;-0.60;74.52;98545.31;5232998;28;20223;-62
2023/02/28 04:16:12;;;;;;;9.57;8.77;;;-1.10;99.90;;;-0.61;73.73;98551.03;5232984;28;20200;-63
2023/02/28 04:19:01;;;;;;;9.50;8.60;;;-1.00;99.90;;;-0.59;73.47;98541.16;5236750;28;20698;-57
2023/02/28 04:21:38;;;;;;;9.13;8.43;;;-1.00;99.90;;;-0.50;73.62;98544.69;5235234;28;20343;-56
2023/02/28 04:24:14;;;;;;;9.00;8.17;;;-1.00;99.90;;;-0.55;73.52;98549.19;5233708;28;20200;-59
2023/02/28 04:26:51;;;;;;;8.53;7.73;;;-1.00;99.90;;;-0.65;74.64;98546.41;5240002;28;20592;-61
2023/02/28 04:29:27;;;;;;;9.10;8.30;;;-1.10;99.90;;;-0.63;74.18;98544.97;5228495;28;20215;-62
2023/02/28 04:32:02;;;;;;;9.23;8.23;;;-1.00;99.90;;;-0.84;74.40;98550.97;5236622;28;20217;-61
2023/02/28 04:34:35;;;;;;;9.53;8.70;;;-1.00;99.90;;;-0.85;75.36;98544.19;5236276;28;20205;-61
2023/02/28 04:37:08;;;;;;;9.33;8.53;;;-1.10;99.90;;;-0.81;75.13;98547.94;5229390;28;20228;-60
2023/02/28 04:39:45;;;;;;;10.07;9.17;;;-1.10;99.90;;;-0.85;75.76;98540.78;5231894;28;20208;-63
2023/02/28 04:42:20;;;;;;;9.43;8.60;;;-1.20;99.90;;;-0.87;75.66;98537.22;5234942;28;20200;-60
2023/02/28 04:44:53;;;;;;;9.50;8.53;;;-1.20;99.90;;;-0.82;75.04;98548.66;5238454;28;20204;-60
2023/02/28 04:47:26;;;;;;;9.90;9.10;;;-1.20;99.90;;;-0.51;74.21;98536.28;5235303;28;20221;-63
2023/02/28 04:49:59;;;;;;;9.13;8.43;;;-1.00;99.90;;;-0.61;74.31;98551.03;5239669;28;20227;-61
2023/02/28 04:52:32;;;;;;;9.40;8.57;;;-1.00;99.90;;;-0.56;74.87;98544.91;5239625;28;20840;-61
2023/02/28 04:55:06;;;;;;;10.00;9.00;;;-1.00;99.90;;;-0.41;72.76;98544.81;5242728;28;20193;-62
2023/02/28 04:57:42;;;;;;;9.63;8.80;;;-0.90;99.90;;;-0.48;73.09;98541.63;5235387;28;20786;-61
2023/02/28 05:00:16;;;;;;;9.93;9.03;;;-0.80;99.90;;;-0.82;75.17;98553.69;5233771;28;20192;-64
2023/02/28 05:02:49;;;;;;;9.90;9.10;;;-1.00;99.90;;;-0.84;75.58;98558.50;5231940;28;20209;-62
2023/02/28 05:05:22;;;;;;;9.47;8.67;;;-1.10;99.90;;;-0.43;72.71;98567.22;5221199;28;20652;-60
2023/02/28 05:07:56;;;;;;;9.83;8.87;;;-0.80;99.90;;;-0.66;74.38;98547.09;5225761;28;20318;-61
2023/02/28 05:10:29;;;;;;;9.07;8.30;;;-0.90;99.90;;;-0.40;74.10;98551.59;5231772;28;20616;-56
2023/02/28 05:13:04;;;;;;;9.40;8.60;;;-0.80;99.90;;;-0.53;72.86;98555.28;5236064;28;20205;-59
2023/02/28 05:15:37;;;;;;;9.40;8.60;;;-0.80;99.90;;;-0.55;74.11;98549.19;5236618;28;20638;-60
2023/02/28 05:18:10;;;;;;;10.13;9.27;;;-0.90;99.90;;;-0.68;75.07;98548.56;5239600;28;20228;-60
2023/02/28 05:20:43;;;;;;;9.53;8.73;;;-0.90;99.90;;;-0.59;73.59;98546.19;5240776;28;20189;-59
2023/02/28 05:23:18;;;;;;;10.43;9.43;;;-0.80;99.90;;;-0.70;73.55;98542.47;5241264;28;20200;-61
2023/02/28 05:25:52;;;;;;;11.17;10.17;;;-0.90;99.90;;;-0.93;74.42;98540.81;5236435;28;20630;-56
2023/02/28 05:28:26;;;;;;;9.77;8.87;;;-1.00;99.90;;;-0.74;74.85;98550.41;5239039;28;20222;-62
2023/02/28 05:30:59;;;;;;;10.33;9.33;;;-1.00;99.90;;;-0.65;74.92;98546.41;5239219;28;20227;-63
2023/02/28 05:33:32;;;;;;;10.90;9.90;;;-1.00;99.90;;;-0.44;74.70;98549.50;5241114;28;20580;-61
2023/02/28 05:36:07;;;;;;;10.20;9.37;;;-0.90;99.90;;;-0.45;73.64;98551.13;5237264;28;20777;-60
2023/02/28 05:38:40;;;;;;;9.93;9.13;;;-0.80;99.90;;;-0.79;74.64;98544.88;5236981;28;20225;-61
2023/02/28 05:41:13;;;;;;;10.80;9.80;;;-1.00;99.90;;;-0.54;74.32;98545.97;5235575;28;20192;-61
2023/02/28 05:43:48;;;;;;;10.60;9.70;;;-0.90;99.90;;;-0.40;73.70;98552.53;5244736;28;20682;-59
2023/02/28 05:46:21;;;;;;;11.37;10.27;;;-0.80;99.90;;;-0.55;74.37;98561.75;5239071;28;20687;-61
2023/02/28 05:48:55;;;;;;;11.43;10.40;;;-0.80;99.90;;;-0.52;74.25;98559.56;5240024;28;20247;-61
2023/02/28 05:51:28;;;;;;;10.80;9.80;;;-0.90;99.90;;;-0.27;73.47;98552.22;5237607;28;20231;-61
2023/02/28 05:54:02;;;;;;;11.50;10.40;;;-0.60;99.90;;;-0.47;73.18;98550.03;5241673;28;20192;-61
2023/02/28 05:56:37;;;;;;;10.73;9.73;;;-0.80;99.90;;;-0.54;73.22;98555.13;5225317;28;20211;-60
2023/02/28 05:59:12;;;;;;;11.17;10.17;;;-0.80;99.90;;;-0.73;75.03;98565.63;5233213;28;20281;-64
2023/02/28 06:01:47;;;;;;;11.50;10.50;;;-0.90;99.90;;;-0.73;74.57;98560.59;5232377;28;20730;-62
2023/02/28 06:04:22;;;;;;;11.43;10.43;;;-1.00;99.90;;;-0.58;74.52;98563.91;5235731;28;20192;-61
2023/02/28 06:07:04;;;;;;;10.93;9.97;;;-1.00;99.90;;;-0.40;74.33;98560.06;5234408;28;20232;-62
2023/02/28 06:09:37;;;;;;;11.83;10.83;;;-0.70;99.90;;;-0.78;75.18;98565.84;5243111;28;20648;-61
2023/02/28 06:12:11;;;;;;;12.20;11.00;;;-0.90;99.90;;;-0.75;75.04;98571.19;5238789;28;20252;-61
2023/02/28 06:14:46;;;;;;;11.63;10.37;;;-1.00;99.90;;;-0.82;76.02;98573.75;5240755;28;20226;-61
2023/02/28 06:17:19;;;;;;;11.63;10.30;;;-1.10;99.90;;;-0.47;74.37;98560.97;5236443;28;20959;-59
2023/02/28 06:19:52;;;;;;;11.93;10.83;;;-0.90;99.90;;;-0.67;74.44;98570.44;5238969;28;20214;-61
2023/02/28 06:22:26;;;;;;;11.37;10.27;;;-1.00;99.90;;;-0.70;75.74;98565.97;5238245;28;20778;-62
2023/02/28 06:24:59;;;;;;;11.13;10.03;;;-1.00;99.90;;;-0.73;75.70;98574.78;5241811;28;20319;-60
2023/02/28 06:27:33;;;;;;;11.07;10.07;;;-1.00;99.90;;;-0.24;73.08;98575.16;5242461;28;20759;-61
2023/02/28 06:30:10;;;;;;;11.67;10.47;;;-0.60;99.90;;;-0.64;73.08;98583.31;5239481;28;20257;-64
2023/02/28 06:32:43;;;;;;;12.20;11.10;;;-0.80;99.90;;;-0.47;73.09;98575.16;5240099;28;20614;-58
2023/02/28 06:35:17;;;;;;;11.70;10.50;;;-0.80;99.90;;;-0.52;74.67;98592.19;5235859;28;20295;-61
2023/02/28 06:37:50;;;;;;;11.77;10.87;;;-0.90;99.90;;;-0.78;73.71;98590.91;5237854;28;20289;-61
2023/02/28 06:40:23;;;;;;;12.07;10.83;;;-0.90;99.90;;;-0.99;75.14;98590.31;5241345;28;20201;-60
2023/02/28 06:42:56;;;;;;;12.70;11.40;;;-1.10;99.90;;;-0.83;76.29;98589.50;5237123;28;20283;-63
2023/02/28 06:45:31;;;;;;;12.33;11.03;;;-1.10;99.90;;;-0.80;76.05;98588.25;5235882;28;20297;-61
2023/02/28 06:48:04;;;;;;;11.50;10.40;;;-1.10;99.90;;;-0.73;75.85;98599.88;5235062;28;20219;-61
2023/02/28 06:50:38;;;;;;;11.70;10.50;;;-1.10;99.90;;;-0.47;74.77;98591.09;5244443;28;20235;-60
2023/02/28 06:53:11;;;;;;;13.23;11.93;;;-0.90;99.90;;;-0.55;74.21;98599.41;5239853;28;20705;-59
2023/02/28 06:55:44;;;;;;;11.93;10.73;;;-0.90;99.90;;;-0.42;74.59;98604.19;5238988;28;20232;-59
2023/02/28 06:58:18;;;;;;;12.53;11.23;;;-0.80;99.90;;;-0.44;74.57;98603.09;5239257;28;20227;-61
2023/02/28 07:00:54;;;;;;;12.50;11.27;;;-0.80;99.90;;;-0.49;73.40;98611.75;5234609;28;20262;-58
2023/02/28 07:03:27;;;;;;;11.83;10.73;;;-0.90;99.90;;;-0.55;75.54;98606.94;5238049;28;20591;-60
2023/02/28 07:06:00;;;;;;;12.27;11.07;;;-0.90;99.90;;;-0.39;74.36;98614.56;5239363;28;20295;-58
2023/02/28 07:08:34;;;;;;;13.50;11.10;;;-0.80;99.90;;;-0.26;73.28;98621.81;5234718;28;20220;-60
2023/02/28 07:11:07;;;;;;;11.60;10.50;;;-0.60;99.90;;;-0.39;74.47;98613.69;5239827;28;20208;-61
2023/02/28 07:13:40;;;;;;;12.43;11.33;;;-0.80;99.90;;;-0.37;73.74;98620.66;5236709;28;20241;-59
2023/02/28 07:16:14;;;;;;;12.27;11.10;;;-0.80;99.90;;;-0.27;74.14;98620.03;5236501;28;20200;-61
2023/02/28 07:18:48;;;;;;;11.67;10.47;;;-0.70;99.90;;;-0.42;73.02;98618.34;5240865;28;20223;-59
2023/02/28 07:21:21;;;;;;;13.13;11.57;;;-0.80;99.90;;;-0.52;73.42;98622.31;5236056;28;20211;-60
2023/02/28 07:23:54;;;;;;;12.73;11.50;;;-0.90;99.90;;;-0.40;73.97;98619.41;5245096;28;20207;-59
2023/02/28 07:26:27;;;;;;;13.13;11.87;;;-0.70;99.90;;;-0.06;72.63;98612.38;5236650;28;20209;-61
2023/02/28 07:29:00;;;;;;;13.07;11.17;;;-0.50;99.90;;;-0.10;73.11;98604.31;5238511;28;20226;-60
2023/02/28 07:31:34;;;;;;;13.77;12.40;;;-0.50;99.90;;;-0.32;73.77;98623.66;5236685;28;20211;-60
2023/02/28 07:34:07;;;;;;;12.00;10.90;;;-0.70;99.90;;;-0.02;71.72;98617.00;5238269;28;20202;-60
2023/02/28 07:36:40;;;;;;;11.63;10.50;;;-0.50;99.90;;;-0.39;72.46;98623.72;5236600;28;20237;-60
2023/02/28 07:39:14;;;;;;;12.93;11.70;;;-0.70;99.90;;;-0.32;72.68;98628.69;5237915;28;20209;-60
2023/02/28 07:41:47;;;;;;;13.63;12.33;;;-0.70;99.90;;;-0.11;72.60;98628.56;5237893;28;20188;-59
2023/02/28 07:44:20;;;;;;;12.97;11.60;;;-0.50;99.90;;;-0.24;73.40;98630.44;5234719;28;20205;-60
2023/02/28 07:46:55;;;;;;;13.93;12.63;;;-0.60;99.90;;;-0.40;73.25;98639.47;5239054;28;20204;-61
2023/02/28 07:49:28;;;;;;;13.20;11.83;;;-0.50;99.90;;;-0.41;74.11;98635.19;5235986;28;20695;-61
2023/02/28 07:52:01;;;;;;;12.77;11.57;;;-0.70;99.90;;;-0.13;72.17;98637.53;5244582;28;20227;-62
2023/02/28 07:54:35;;;;;;;13.77;12.37;;;-0.60;99.90;;;-0.28;73.42;98638.34;5235687;28;20584;-61
2023/02/28 07:57:07;;;;;;;13.37;11.97;;;-0.60;99.90;;;-0.24;73.78;98635.44;5235768;28;20319;-58
2023/02/28 07:59:40;;;;;;;12.73;11.43;;;-0.60;99.90;;;-0.22;73.59;98634.00;5244283;28;20201;-59
2023/02/28 08:02:17;;;;;;;13.00;11.80;;;-0.60;99.90;;;-0.35;73.05;98639.28;5240809;28;20219;-60
2023/02/28 08:04:50;;;;;;;13.57;12.27;;;-0.60;99.90;;;-0.38;73.29;98638.06;5239551;28;20203;-58
2023/02/28 08:07:23;;;;;;;13.97;12.60;;;-0.60;99.90;;;-0.22;72.87;98635.63;5233187;28;20265;-60
2023/02/28 08:09:56;;;;;;;13.37;12.07;;;-0.50;99.90;;;-0.31;72.99;98636.41;5237013;28;20196;-62
2023/02/28 08:12:29;;;;;;;13.07;11.77;;;-0.60;99.90;;;0.02;72.06;98635.81;5236661;28;20582;-61
2023/02/28 08:15:02;;;;;;;13.33;12.03;;;-0.50;99.90;;;-0.10;71.87;98650.44;5238796;28;20267;-61
2023/02/28 08:17:36;;;;;;;13.27;11.97;;;-0.50;99.90;;;-0.04;71.52;98645.19;5244464;28;20291;-60
2023/02/28 08:20:11;;;;;;;13.87;12.40;;;-0.40;99.90;;;0.13;72.10;98637.00;5237909;28;20266;-60
2023/02/28 08:22:45;;;;;;;13.00;11.70;;;-0.30;99.90;;;0.37;70.65;98642.19;5237434;28;20513;-61
2023/02/28 08:25:19;;;;;;;12.27;10.97;;;0.00;99.90;;;0.10;71.18;98635.03;5242694;28;20370;-60
2023/02/28 08:27:52;;;;;;;13.17;11.80;;;-0.20;99.90;;;-0.06;71.50;98645.03;5240358;28;20223;-59
2023/02/28 08:30:25;;;;;;;13.70;12.27;;;-0.20;99.90;;;0.04;72.41;98651.06;5238671;28;20262;-59
2023/02/28 08:33:01;;;;;;;13.67;12.27;;;-0.30;99.90;;;0.30;71.33;98644.75;5237325;28;20625;-60
2023/02/28 08:35:37;;;;;;;13.83;12.43;;;-0.10;99.90;;;0.56;71.07;98639.13;5237268;28;20207;-61
2023/02/28 08:38:10;;;;;;;13.93;12.70;;;0.00;99.90;;;0.34;70.61;98635.91;5233362;28;20233;-61
2023/02/28 08:40:43;;;;;;;14.67;13.27;;;0.10;99.90;;;0.61;70.22;98641.41;5241973;28;20657;-60
2023/02/28 08:43:16;;;;;;;13.73;12.50;;;0.10;99.90;;;0.73;69.52;98634.28;5242659;28;20276;-61
2023/02/28 08:45:52;;;;;;;14.33;12.90;;;0.30;99.90;;;0.83;69.36;98637.06;5235640;28;20705;-61
2023/02/28 08:48:29;;;;;;;14.03;12.73;;;0.30;99.90;;;0.59;69.01;98634.44;5231411;28;20237;-61
2023/02/28 08:51:08;;;;;;;14.80;13.30;;;0.30;99.90;;;0.64;69.53;98638.34;5237448;28;20206;-60
2023/02/28 08:53:42;;;;;;;15.23;13.63;;;0.30;99.90;;;0.69;68.79;98647.28;5233090;28;20705;-65
2023/02/28 08:56:17;;;;;;;14.43;13.03;;;0.30;99.90;;;1.03;67.71;98635.75;5247878;28;20203;-62
2023/02/28 08:58:51;;;;;;;13.80;12.60;;;0.60;99.90;;;1.19;66.53;98641.69;5236598;28;20652;-60
2023/02/28 09:01:27;;;;;;;13.43;12.20;;;0.70;99.90;;;1.32;66.44;98634.69;5240198;28;20198;-62
2023/02/28 09:04:03;;;;;;;14.73;13.33;;;0.80;99.90;;;1.17;66.08;98637.22;5242648;28;20219;-59
2023/02/28 09:06:36;;;;;;;14.13;12.73;;;0.70;99.90;;;1.26;66.22;98636.59;5241979;28;20538;-60
2023/02/28 09:09:09;;;;;;;14.33;12.93;;;0.80;99.90;;;1.21;66.47;98642.75;5239811;28;20228;-62
2023/02/28 09:11:42;;;;;;;13.23;12.13;;;0.90;99.90;;;1.21;66.14;98642.75;5240365;28;20208;-60
2023/02/28 09:14:17;;;;;;;13.67;12.27;;;0.80;99.90;;;1.20;65.03;98648.50;5241534;28;20215;-62
2023/02/28 09:16:50;;;;;;;14.10;12.67;;;0.80;99.90;;;0.95;65.94;98651.69;5237348;28;20220;-62
2023/02/28 09:19:24;;;;;;;13.80;12.50;;;0.70;99.90;;;1.32;65.13;98643.88;5245488;28;20246;-61
2023/02/28 09:21:58;;;;;;;14.60;13.20;;;0.90;99.90;;;1.50;64.30;98652.47;5239017;28;20207;-62
2023/02/28 09:24:31;;;;;;;13.93;12.63;;;1.00;99.90;;;1.56;65.06;98648.06;5240489;28;20196;-62
2023/02/28 09:27:05;;;;;;;14.60;13.13;;;1.00;99.90;;;1.35;64.82;98654.28;5238604;28;20302;-60
2023/02/28 09:29:39;;;;;;;15.07;13.53;;;1.10;99.90;;;1.71;64.18;98652.16;5241276;28;20207;-59
2023/02/28 09:32:12;;;;;;;14.53;13.33;;;1.20;99.90;;;1.41;64.00;98651.50;5241477;28;20208;-61
2023/02/28 09:34:46;;;;;;;14.67;13.27;;;1.10;99.90;;;1.62;64.23;98652.84;5239516;28;20217;-58
2023/02/28 09:37:19;;;;;;;14.40;12.47;;;1.20;99.90;;;1.52;64.16;98658.56;5239349;28;20527;-61
2023/02/28 09:39:52;;;;;;;14.63;13.23;;;1.10;99.90;;;1.64;63.41;98654.78;5242016;28;20217;-60
2023/02/28 09:42:32;;;;;;;14.33;12.87;;;1.30;99.90;;;1.57;64.61;98650.75;5243464;28;20652;-60
2023/02/28 09:45:17;;;;;;;13.90;12.70;;;1.10;99.90;;;1.75;63.36;98654.28;5240648;28;20197;-60
2023/02/28 09:47:53;;;;;;;14.97;13.50;;;1.20;99.90;;;1.55;63.52;98651.31;5242854;28;20661;-59
2023/02/28 09:50:35;;;;;;;15.00;13.70;;;1.20;99.90;;;1.65;63.54;98649.00;5234289;28;20204;-60
2023/02/28 09:53:21;;;;;;;14.50;13.10;;;1.30;99.90;;;1.90;62.42;98651.56;5241510;28;20692;-61
2023/02/28 09:55:59;;;;;;;14.30;12.80;;;1.50;99.90;;;1.88;62.49;98650.50;5240894;28;20205;-58
2023/02/28 09:58:42;;;;;;;15.03;13.70;;;1.50;99.90;;;1.86;61.78;98664.56;5243917;28;20225;-61
2023/02/28 10:01:28;;;;;;;15.20;13.60;;;1.60;99.80;;;1.87;62.10;98653.78;5239662;28;20196;-60
2023/02/28 10:04:09;;;;;;;14.30;12.90;;;1.80;99.50;;;1.95;62.67;98647.91;5239949;28;20200;-61
2023/02/28 10:06:49;;;;;;;14.83;13.37;;;1.60;99.80;;;2.05;61.68;98650.59;5239351;28;20237;-60
2023/02/28 10:09:28;;;;;;;13.90;12.47;;;1.80;99.40;;;1.99;61.75;98653.38;5236249;28;20710;-60
2023/02/28 10:12:05;;;;;;;14.77;13.20;;;1.80;99.40;;;2.29;61.16;98663.91;5237875;28;20194;-61
2023/02/28 10:14:50;;;;;;;13.53;12.33;;;1.90;99.20;;;2.33;60.06;98658.47;5236833;28;20207;-61
2023/02/28 10:17:27;;;;;;;14.43;13.00;;;2.00;99.20;;;2.73;58.61;98662.47;5235368;28;20224;-62
2023/02/28 10:20:10;;;;;;;14.60;13.27;;;2.40;98.00;;;2.89;58.08;98669.22;5241464;28;20577;-61
2023/02/28 10:22:54;;;;;;;14.17;12.77;;;2.50;98.10;;;3.13;56.78;98660.63;5239797;28;20290;-61
2023/02/28 10:25:29;;;;;;;13.70;12.43;;;2.60;97.80;;;2.57;57.81;98668.50;5231837;28;20207;-62
2023/02/28 10:28:12;;;;;;;13.83;12.57;;;2.50;97.30;;;2.87;57.86;98669.78;5232675;28;20228;-61
2023/02/28 10:30:48;;;;;;;13.70;12.30;;;2.60;97.50;;;3.07;56.58;98682.75;5239280;28;20204;-60
2023/02/28 10:33:25;;;;;;;13.80;12.57;;;2.90;96.60;;;2.80;57.28;98670.78;5240749;28;20215;-61
2023/02/28 10:36:00;;;;;;;14.47;13.27;;;2.60;96.90;;;2.94;57.23;98673.06;5238785;28;20196;-58
2023/02/28 10:38:37;;;;;;;13.87;12.53;;;2.70;96.90;;;2.88;57.87;98667.41;5232476;28;20350;-61
2023/02/28 10:41:14;;;;;;;13.97;12.67;;;2.70;97.20;;;3.21;57.01;98678.19;5237121;28;20195;-59
2023/02/28 10:43:47;;;;;;;14.10;12.90;;;2.80;96.80;;;2.94;57.24;98669.66;5242062;28;20198;-60
2023/02/28 10:46:25;;;;;;;14.77;13.37;;;2.70;96.60;;;3.33;55.86;98670.16;5238169;28;20210;-62
2023/02/28 10:49:04;;;;;;;14.47;13.00;;;3.00;96.30;;;2.99;56.17;98678.56;5246343;28;20731;-61
2023/02/28 10:51:40;;;;;;;15.13;13.73;;;2.70;96.40;;;3.21;56.49;98683.25;5238961;28;20287;-62
2023/02/28 10:54:20;;;;;;;14.40;13.00;;;2.90;96.70;;;3.21;56.30;98678.19;5232765;28;20226;-62